sensor_id;sensor_type;location;lat;lon;timestamp;P1;durP1;ratioP1;P2;durP2;ratioP2
37284;SDS011;23172;53.550;9.964;2023-02-08T00:04:15;15.35;;;11.73;;
37284;SDS011;23172;53.550;9.964;2023-02-08T00:09:17;13.68;;;11.15;;
37284;SDS011;23172;53.550;9.964;2023-02-08T00:14:20;14.40;;;11.10;;
37284;SDS011;23172;53.550;9.964;2023-02-08T00:19:22;14.88;;;11.18;;
37284;SDS011;23172;53.550;9.964;2023-02-08T00:24:24;13.65;;;11.05;;
37284;SDS011;23172;53.550;9.964;2023-02-08T00:29:28;14.45;;;11.15;;
37284;SDS011;23172;53.550;9.964;2023-02-08T00:34:29;12.82;;;10.93;;
37284;SDS011;23172;53.550;9.964;2023-02-08T00:39:32;14.38;;;11.90;;
37284;SDS011;23172;53.550;9.964;2023-02-08T00:44:35;18.48;;;12.88;;
37284;SDS011;23172;53.550;9.964;2023-02-08T00:49:37;16.00;;;12.98;;
37284;SDS011;23172;53.550;9.964;2023-02-08T00:54:39;14.30;;;11.45;;
37284;SDS011;23172;53.550;9.964;2023-02-08T00:59:42;12.75;;;10.65;;
37284;SDS011;23172;53.550;9.964;2023-02-08T01:04:44;14.85;;;11.85;;
37284;SDS011;23172;53.550;9.964;2023-02-08T01:09:46;18.20;;;12.68;;
37284;SDS011;23172;53.550;9.964;2023-02-08T01:14:49;18.08;;;13.48;;
37284;SDS011;23172;53.550;9.964;2023-02-08T01:19:51;15.45;;;12.10;;
37284;SDS011;23172;53.550;9.964;2023-02-08T01:24:53;16.42;;;12.07;;
37284;SDS011;23172;53.550;9.964;2023-02-08T01:29:57;14.73;;;11.77;;
37284;SDS011;23172;53.550;9.964;2023-02-08T01:34:58;11.88;;;10.50;;
37284;SDS011;23172;53.550;9.964;2023-02-08T01:40:00;18.42;;;13.80;;
37284;SDS011;23172;53.550;9.964;2023-02-08T01:45:20;18.10;;;13.90;;
37284;SDS011;23172;53.550;9.964;2023-02-08T01:50:25;20.38;;;15.23;;
37284;SDS011;23172;53.550;9.964;2023-02-08T01:55:33;19.13;;;14.23;;
37284;SDS011;23172;53.550;9.964;2023-02-08T02:00:39;19.45;;;14.15;;
37284;SDS011;23172;53.550;9.964;2023-02-08T02:05:42;19.17;;;14.02;;
37284;SDS011;23172;53.550;9.964;2023-02-08T02:10:50;18.98;;;14.70;;
37284;SDS011;23172;53.550;9.964;2023-02-08T02:15:53;18.33;;;15.00;;
37284;SDS011;23172;53.550;9.964;2023-02-08T02:26:31;20.95;;;15.10;;
37284;SDS011;23172;53.550;9.964;2023-02-08T02:37:21;20.15;;;15.15;;
37284;SDS011;23172;53.550;9.964;2023-02-08T02:42:34;18.23;;;14.55;;
37284;SDS011;23172;53.550;9.964;2023-02-08T02:48:01;20.42;;;15.00;;
37284;SDS011;23172;53.550;9.964;2023-02-08T02:53:11;21.27;;;15.95;;
37284;SDS011;23172;53.550;9.964;2023-02-08T02:58:20;19.30;;;13.65;;
37284;SDS011;23172;53.550;9.964;2023-02-08T03:03:24;21.70;;;15.75;;
37284;SDS011;23172;53.550;9.964;2023-02-08T03:14:01;24.33;;;16.90;;
37284;SDS011;23172;53.550;9.964;2023-02-08T03:19:13;26.67;;;17.95;;
37284;SDS011;23172;53.550;9.964;2023-02-08T03:24:25;21.88;;;16.50;;
37284;SDS011;23172;53.550;9.964;2023-02-08T03:29:36;20.48;;;14.77;;
37284;SDS011;23172;53.550;9.964;2023-02-08T03:34:45;23.70;;;18.27;;
37284;SDS011;23172;53.550;9.964;2023-02-08T03:39:55;23.40;;;16.55;;
37284;SDS011;23172;53.550;9.964;2023-02-08T03:45:04;19.13;;;14.25;;
37284;SDS011;23172;53.550;9.964;2023-02-08T03:50:10;22.02;;;16.65;;
37284;SDS011;23172;53.550;9.964;2023-02-08T03:55:19;24.65;;;17.65;;
37284;SDS011;23172;53.550;9.964;2023-02-08T04:00:24;24.10;;;17.40;;
37284;SDS011;23172;53.550;9.964;2023-02-08T04:05:28;24.50;;;16.63;;
37284;SDS011;23172;53.550;9.964;2023-02-08T04:10:31;25.88;;;18.13;;
37284;SDS011;23172;53.550;9.964;2023-02-08T04:15:33;24.42;;;17.88;;
37284;SDS011;23172;53.550;9.964;2023-02-08T04:20:35;23.35;;;17.20;;
37284;SDS011;23172;53.550;9.964;2023-02-08T04:25:38;27.90;;;18.40;;
37284;SDS011;23172;53.550;9.964;2023-02-08T04:30:40;22.50;;;15.90;;
37284;SDS011;23172;53.550;9.964;2023-02-08T04:35:42;25.83;;;17.83;;
37284;SDS011;23172;53.550;9.964;2023-02-08T04:40:45;25.40;;;17.95;;
37284;SDS011;23172;53.550;9.964;2023-02-08T04:45:48;24.02;;;17.35;;
37284;SDS011;23172;53.550;9.964;2023-02-08T04:50:50;22.83;;;15.52;;
37284;SDS011;23172;53.550;9.964;2023-02-08T04:55:56;27.33;;;19.63;;
37284;SDS011;23172;53.550;9.964;2023-02-08T05:00:58;26.50;;;19.23;;
37284;SDS011;23172;53.550;9.964;2023-02-08T05:06:00;27.55;;;20.08;;
37284;SDS011;23172;53.550;9.964;2023-02-08T05:11:04;30.88;;;20.95;;
37284;SDS011;23172;53.550;9.964;2023-02-08T05:16:06;28.98;;;19.77;;
37284;SDS011;23172;53.550;9.964;2023-02-08T05:21:08;31.80;;;19.88;;
37284;SDS011;23172;53.550;9.964;2023-02-08T05:26:11;32.45;;;20.95;;
37284;SDS011;23172;53.550;9.964;2023-02-08T05:31:14;26.63;;;17.90;;
37284;SDS011;23172;53.550;9.964;2023-02-08T05:36:20;30.42;;;19.92;;
37284;SDS011;23172;53.550;9.964;2023-02-08T05:41:24;28.40;;;19.80;;
37284;SDS011;23172;53.550;9.964;2023-02-08T05:46:26;28.25;;;19.00;;
37284;SDS011;23172;53.550;9.964;2023-02-08T05:51:28;27.38;;;19.85;;
37284;SDS011;23172;53.550;9.964;2023-02-08T05:56:31;29.10;;;20.20;;
37284;SDS011;23172;53.550;9.964;2023-02-08T06:01:33;31.05;;;21.23;;
37284;SDS011;23172;53.550;9.964;2023-02-08T06:06:35;29.30;;;20.23;;
37284;SDS011;23172;53.550;9.964;2023-02-08T06:11:38;32.40;;;21.63;;
37284;SDS011;23172;53.550;9.964;2023-02-08T06:16:40;29.88;;;20.75;;
37284;SDS011;23172;53.550;9.964;2023-02-08T06:21:42;30.40;;;19.70;;
37284;SDS011;23172;53.550;9.964;2023-02-08T06:26:45;30.67;;;19.83;;
37284;SDS011;23172;53.550;9.964;2023-02-08T06:31:47;32.05;;;20.45;;
37284;SDS011;23172;53.550;9.964;2023-02-08T06:36:49;28.90;;;19.50;;
37284;SDS011;23172;53.550;9.964;2023-02-08T06:41:52;34.97;;;22.02;;
37284;SDS011;23172;53.550;9.964;2023-02-08T06:46:54;35.30;;;21.88;;
37284;SDS011;23172;53.550;9.964;2023-02-08T06:51:56;34.30;;;22.02;;
37284;SDS011;23172;53.550;9.964;2023-02-08T06:56:59;31.92;;;21.40;;
37284;SDS011;23172;53.550;9.964;2023-02-08T07:02:01;34.60;;;22.98;;
37284;SDS011;23172;53.550;9.964;2023-02-08T07:07:04;34.25;;;21.80;;
37284;SDS011;23172;53.550;9.964;2023-02-08T07:12:07;37.92;;;23.40;;
37284;SDS011;23172;53.550;9.964;2023-02-08T07:17:09;38.25;;;23.58;;
37284;SDS011;23172;53.550;9.964;2023-02-08T07:22:12;35.22;;;21.42;;
37284;SDS011;23172;53.550;9.964;2023-02-08T07:27:15;35.60;;;21.13;;
37284;SDS011;23172;53.550;9.964;2023-02-08T07:32:17;32.88;;;21.33;;
37284;SDS011;23172;53.550;9.964;2023-02-08T07:37:19;35.35;;;22.58;;
37284;SDS011;23172;53.550;9.964;2023-02-08T07:42:22;34.28;;;22.10;;
37284;SDS011;23172;53.550;9.964;2023-02-08T07:47:24;33.25;;;20.90;;
37284;SDS011;23172;53.550;9.964;2023-02-08T07:52:26;36.75;;;21.60;;
37284;SDS011;23172;53.550;9.964;2023-02-08T07:57:30;34.58;;;21.98;;
37284;SDS011;23172;53.550;9.964;2023-02-08T08:02:32;33.33;;;21.75;;
37284;SDS011;23172;53.550;9.964;2023-02-08T08:07:33;30.48;;;19.95;;
37284;SDS011;23172;53.550;9.964;2023-02-08T08:12:37;30.77;;;20.70;;
37284;SDS011;23172;53.550;9.964;2023-02-08T08:17:39;31.17;;;20.35;;
37284;SDS011;23172;53.550;9.964;2023-02-08T08:22:41;32.22;;;19.35;;
37284;SDS011;23172;53.550;9.964;2023-02-08T08:27:44;31.55;;;21.25;;
37284;SDS011;23172;53.550;9.964;2023-02-08T08:32:46;35.22;;;21.58;;
37284;SDS011;23172;53.550;9.964;2023-02-08T08:37:48;36.47;;;22.65;;
37284;SDS011;23172;53.550;9.964;2023-02-08T08:42:51;34.35;;;21.17;;
37284;SDS011;23172;53.550;9.964;2023-02-08T08:47:53;37.17;;;23.25;;
37284;SDS011;23172;53.550;9.964;2023-02-08T08:52:55;33.33;;;20.98;;
37284;SDS011;23172;53.550;9.964;2023-02-08T08:57:58;32.05;;;20.98;;
37284;SDS011;23172;53.550;9.964;2023-02-08T09:03:00;33.97;;;20.83;;
37284;SDS011;23172;53.550;9.964;2023-02-08T09:08:02;33.30;;;22.63;;
37284;SDS011;23172;53.550;9.964;2023-02-08T09:13:06;34.78;;;21.95;;
37284;SDS011;23172;53.550;9.964;2023-02-08T09:18:08;35.10;;;22.40;;
37284;SDS011;23172;53.550;9.964;2023-02-08T09:23:10;36.20;;;23.15;;
37284;SDS011;23172;53.550;9.964;2023-02-08T09:28:14;34.90;;;23.02;;
37284;SDS011;23172;53.550;9.964;2023-02-08T09:33:16;39.60;;;23.85;;
37284;SDS011;23172;53.550;9.964;2023-02-08T09:38:18;33.20;;;22.95;;
37284;SDS011;23172;53.550;9.964;2023-02-08T09:43:23;36.28;;;23.65;;
37284;SDS011;23172;53.550;9.964;2023-02-08T09:48:35;34.85;;;23.20;;
37284;SDS011;23172;53.550;9.964;2023-02-08T09:53:40;34.05;;;22.63;;
37284;SDS011;23172;53.550;9.964;2023-02-08T09:58:48;30.90;;;21.95;;
37284;SDS011;23172;53.550;9.964;2023-02-08T10:03:52;34.38;;;21.48;;
37284;SDS011;23172;53.550;9.964;2023-02-08T10:08:58;33.13;;;22.30;;
37284;SDS011;23172;53.550;9.964;2023-02-08T10:14:20;32.22;;;21.17;;
37284;SDS011;23172;53.550;9.964;2023-02-08T10:19:44;31.58;;;21.02;;
37284;SDS011;23172;53.550;9.964;2023-02-08T10:25:02;35.22;;;23.10;;
37284;SDS011;23172;53.550;9.964;2023-02-08T10:30:19;35.35;;;22.30;;
37284;SDS011;23172;53.550;9.964;2023-02-08T10:35:30;33.10;;;21.98;;
37284;SDS011;23172;53.550;9.964;2023-02-08T10:40:36;30.75;;;19.98;;
37284;SDS011;23172;53.550;9.964;2023-02-08T10:45:42;32.67;;;21.85;;
37284;SDS011;23172;53.550;9.964;2023-02-08T10:50:49;27.63;;;19.23;;
37284;SDS011;23172;53.550;9.964;2023-02-08T10:55:51;32.45;;;21.15;;
37284;SDS011;23172;53.550;9.964;2023-02-08T11:00:54;31.50;;;20.33;;
37284;SDS011;23172;53.550;9.964;2023-02-08T11:05:58;36.75;;;22.88;;
37284;SDS011;23172;53.550;9.964;2023-02-08T11:11:03;31.35;;;21.88;;
37284;SDS011;23172;53.550;9.964;2023-02-08T11:16:08;27.95;;;19.77;;
37284;SDS011;23172;53.550;9.964;2023-02-08T11:21:20;29.92;;;19.58;;
37284;SDS011;23172;53.550;9.964;2023-02-08T11:26:29;31.88;;;21.10;;
37284;SDS011;23172;53.550;9.964;2023-02-08T11:31:34;31.77;;;21.17;;
37284;SDS011;23172;53.550;9.964;2023-02-08T11:36:37;31.55;;;22.67;;
37284;SDS011;23172;53.550;9.964;2023-02-08T11:41:46;33.03;;;22.13;;
37284;SDS011;23172;53.550;9.964;2023-02-08T11:46:50;51.90;;;26.95;;
37284;SDS011;23172;53.550;9.964;2023-02-08T11:51:53;24.65;;;17.45;;
37284;SDS011;23172;53.550;9.964;2023-02-08T11:57:00;33.90;;;21.85;;
37284;SDS011;23172;53.550;9.964;2023-02-08T12:07:35;30.13;;;23.38;;
37284;SDS011;23172;53.550;9.964;2023-02-08T12:12:48;32.88;;;23.00;;
37284;SDS011;23172;53.550;9.964;2023-02-08T12:18:21;35.50;;;27.92;;
37284;SDS011;23172;53.550;9.964;2023-02-08T12:28:56;232.40;;;214.40;;
37284;SDS011;23172;53.550;9.964;2023-02-08T12:34:09;101.50;;;93.38;;
37284;SDS011;23172;53.550;9.964;2023-02-08T12:39:26;679.58;;;623.85;;
37284;SDS011;23172;53.550;9.964;2023-02-08T12:44:58;503.98;;;461.40;;
37284;SDS011;23172;53.550;9.964;2023-02-08T12:50:26;1632.63;;;912.53;;
37284;SDS011;23172;53.550;9.964;2023-02-08T12:55:36;1194.93;;;780.42;;
37284;SDS011;23172;53.550;9.964;2023-02-08T13:00:41;978.35;;;850.70;;
37284;SDS011;23172;53.550;9.964;2023-02-08T13:05:47;1502.35;;;999.90;;
37284;SDS011;23172;53.550;9.964;2023-02-08T13:10:50;1927.57;;;997.97;;
37284;SDS011;23172;53.550;9.964;2023-02-08T13:15:58;1242.70;;;830.03;;
37284;SDS011;23172;53.550;9.964;2023-02-08T13:21:07;1342.32;;;503.25;;
37284;SDS011;23172;53.550;9.964;2023-02-08T13:26:14;564.78;;;244.07;;
37284;SDS011;23172;53.550;9.964;2023-02-08T13:31:18;1615.85;;;786.08;;
37284;SDS011;23172;53.550;9.964;2023-02-08T13:36:26;1999.90;;;999.90;;
37284;SDS011;23172;53.550;9.964;2023-02-08T13:41:30;1999.90;;;999.90;;
37284;SDS011;23172;53.550;9.964;2023-02-08T13:46:34;1999.90;;;999.90;;
37284;SDS011;23172;53.550;9.964;2023-02-08T13:57:03;1999.90;;;999.90;;
37284;SDS011;23172;53.550;9.964;2023-02-08T14:02:27;1999.90;;;999.90;;
37284;SDS011;23172;53.550;9.964;2023-02-08T14:07:38;1999.90;;;999.90;;
37284;SDS011;23172;53.550;9.964;2023-02-08T14:12:44;1999.90;;;999.90;;
37284;SDS011;23172;53.550;9.964;2023-02-08T14:17:54;1999.90;;;999.90;;
37284;SDS011;23172;53.550;9.964;2023-02-08T14:23:00;1999.90;;;999.90;;
37284;SDS011;23172;53.550;9.964;2023-02-08T14:28:04;1999.90;;;999.90;;
37284;SDS011;23172;53.550;9.964;2023-02-08T14:33:08;1999.90;;;999.90;;
37284;SDS011;23172;53.550;9.964;2023-02-08T14:43:54;1999.90;;;999.90;;
37284;SDS011;23172;53.550;9.964;2023-02-08T14:48:56;1999.90;;;999.90;;
37284;SDS011;23172;53.550;9.964;2023-02-08T14:54:00;1999.90;;;999.90;;
37284;SDS011;23172;53.550;9.964;2023-02-08T14:59:08;1999.90;;;999.90;;
37284;SDS011;23172;53.550;9.964;2023-02-08T15:04:14;1999.90;;;999.90;;
37284;SDS011;23172;53.550;9.964;2023-02-08T15:09:18;1999.90;;;999.90;;
37284;SDS011;23172;53.550;9.964;2023-02-08T15:14:24;1999.90;;;999.90;;
37284;SDS011;23172;53.550;9.964;2023-02-08T15:19:27;1999.90;;;999.90;;
37284;SDS011;23172;53.550;9.964;2023-02-08T15:24:31;1999.90;;;999.90;;
37284;SDS011;23172;53.550;9.964;2023-02-08T15:29:40;1999.90;;;999.90;;
37284;SDS011;23172;53.550;9.964;2023-02-08T15:34:44;1999.90;;;999.90;;
37284;SDS011;23172;53.550;9.964;2023-02-08T15:39:51;1999.90;;;999.90;;
37284;SDS011;23172;53.550;9.964;2023-02-08T15:44:56;1999.90;;;999.90;;
37284;SDS011;23172;53.550;9.964;2023-02-08T15:49:59;1999.90;;;999.90;;
37284;SDS011;23172;53.550;9.964;2023-02-08T15:55:05;1999.90;;;999.90;;
37284;SDS011;23172;53.550;9.964;2023-02-08T16:00:12;1999.90;;;999.90;;
37284;SDS011;23172;53.550;9.964;2023-02-08T16:05:17;1999.90;;;999.90;;
37284;SDS011;23172;53.550;9.964;2023-02-08T16:10:22;1999.90;;;999.90;;
37284;SDS011;23172;53.550;9.964;2023-02-08T16:15:38;1999.90;;;999.90;;
37284;SDS011;23172;53.550;9.964;2023-02-08T16:20:41;1999.90;;;999.90;;
37284;SDS011;23172;53.550;9.964;2023-02-08T16:25:43;1999.90;;;999.90;;
37284;SDS011;23172;53.550;9.964;2023-02-08T16:30:49;1999.90;;;999.90;;
37284;SDS011;23172;53.550;9.964;2023-02-08T16:35:53;1999.90;;;999.90;;
37284;SDS011;23172;53.550;9.964;2023-02-08T16:41:01;1999.90;;;999.90;;
37284;SDS011;23172;53.550;9.964;2023-02-08T16:46:20;1999.90;;;999.90;;
37284;SDS011;23172;53.550;9.964;2023-02-08T16:51:25;1999.90;;;999.90;;
37284;SDS011;23172;53.550;9.964;2023-02-08T16:56:28;346.77;;;73.80;;
37284;SDS011;23172;53.550;9.964;2023-02-08T17:01:32;1635.25;;;789.88;;
37284;SDS011;23172;53.550;9.964;2023-02-08T17:06:44;936.83;;;336.08;;
37284;SDS011;23172;53.550;9.964;2023-02-08T17:11:46;747.08;;;241.57;;
37284;SDS011;23172;53.550;9.964;2023-02-08T17:16:49;1336.28;;;505.73;;
37284;SDS011;23172;53.550;9.964;2023-02-08T17:21:51;1583.55;;;626.72;;
37284;SDS011;23172;53.550;9.964;2023-02-08T17:26:53;1345.88;;;457.20;;
37284;SDS011;23172;53.550;9.964;2023-02-08T17:31:56;1061.70;;;440.58;;
37284;SDS011;23172;53.550;9.964;2023-02-08T17:36:58;912.55;;;479.90;;
37284;SDS011;23172;53.550;9.964;2023-02-08T17:42:00;1422.47;;;566.55;;
37284;SDS011;23172;53.550;9.964;2023-02-08T17:47:03;985.42;;;366.35;;
37284;SDS011;23172;53.550;9.964;2023-02-08T17:52:05;999.03;;;388.90;;
37284;SDS011;23172;53.550;9.964;2023-02-08T17:57:07;1143.15;;;469.15;;
37284;SDS011;23172;53.550;9.964;2023-02-08T18:02:12;1439.30;;;684.13;;
37284;SDS011;23172;53.550;9.964;2023-02-08T18:07:14;1310.85;;;566.00;;
37284;SDS011;23172;53.550;9.964;2023-02-08T18:12:15;1365.60;;;743.72;;
37284;SDS011;23172;53.550;9.964;2023-02-08T18:17:19;958.05;;;608.35;;
37284;SDS011;23172;53.550;9.964;2023-02-08T18:22:20;934.92;;;622.65;;
37284;SDS011;23172;53.550;9.964;2023-02-08T18:27:23;1284.03;;;790.30;;
37284;SDS011;23172;53.550;9.964;2023-02-08T18:32:27;1042.20;;;633.38;;
37284;SDS011;23172;53.550;9.964;2023-02-08T18:37:29;759.08;;;647.38;;
37284;SDS011;23172;53.550;9.964;2023-02-08T18:42:32;1045.18;;;620.08;;
37284;SDS011;23172;53.550;9.964;2023-02-08T18:47:35;528.28;;;420.48;;
37284;SDS011;23172;53.550;9.964;2023-02-08T18:52:38;547.65;;;371.73;;
37284;SDS011;23172;53.550;9.964;2023-02-08T18:57:40;467.17;;;343.20;;
37284;SDS011;23172;53.550;9.964;2023-02-08T19:02:43;497.10;;;369.05;;
37284;SDS011;23172;53.550;9.964;2023-02-08T19:07:45;447.67;;;290.23;;
37284;SDS011;23172;53.550;9.964;2023-02-08T19:12:47;572.13;;;407.23;;
37284;SDS011;23172;53.550;9.964;2023-02-08T19:17:50;654.75;;;443.75;;
37284;SDS011;23172;53.550;9.964;2023-02-08T19:22:53;586.55;;;437.75;;
37284;SDS011;23172;53.550;9.964;2023-02-08T19:27:55;507.38;;;387.33;;
37284;SDS011;23172;53.550;9.964;2023-02-08T19:32:58;600.35;;;469.73;;
37284;SDS011;23172;53.550;9.964;2023-02-08T19:38:00;457.00;;;300.60;;
37284;SDS011;23172;53.550;9.964;2023-02-08T19:43:02;560.25;;;413.98;;
37284;SDS011;23172;53.550;9.964;2023-02-08T19:48:05;635.10;;;492.00;;
37284;SDS011;23172;53.550;9.964;2023-02-08T19:53:07;394.08;;;335.50;;
37284;SDS011;23172;53.550;9.964;2023-02-08T19:58:09;358.27;;;304.70;;
37284;SDS011;23172;53.550;9.964;2023-02-08T20:03:16;276.52;;;246.10;;
37284;SDS011;23172;53.550;9.964;2023-02-08T20:08:18;213.43;;;185.00;;
37284;SDS011;23172;53.550;9.964;2023-02-08T20:13:23;260.92;;;226.48;;
37284;SDS011;23172;53.550;9.964;2023-02-08T20:18:26;226.38;;;161.15;;
37284;SDS011;23172;53.550;9.964;2023-02-08T20:23:28;269.90;;;239.48;;
37284;SDS011;23172;53.550;9.964;2023-02-08T20:28:30;235.45;;;171.77;;
37284;SDS011;23172;53.550;9.964;2023-02-08T20:33:33;132.00;;;108.75;;
37284;SDS011;23172;53.550;9.964;2023-02-08T20:38:35;150.10;;;103.57;;
37284;SDS011;23172;53.550;9.964;2023-02-08T20:43:38;140.95;;;108.70;;
37284;SDS011;23172;53.550;9.964;2023-02-08T20:48:41;143.25;;;115.90;;
37284;SDS011;23172;53.550;9.964;2023-02-08T20:53:44;160.73;;;116.50;;
37284;SDS011;23172;53.550;9.964;2023-02-08T20:58:47;134.25;;;92.88;;
37284;SDS011;23172;53.550;9.964;2023-02-08T21:03:50;142.35;;;112.50;;
37284;SDS011;23172;53.550;9.964;2023-02-08T21:08:53;101.85;;;66.50;;
37284;SDS011;23172;53.550;9.964;2023-02-08T21:13:55;116.63;;;85.03;;
37284;SDS011;23172;53.550;9.964;2023-02-08T21:18:59;106.03;;;85.82;;
37284;SDS011;23172;53.550;9.964;2023-02-08T21:24:01;134.65;;;119.88;;
37284;SDS011;23172;53.550;9.964;2023-02-08T21:29:03;126.25;;;101.00;;
37284;SDS011;23172;53.550;9.964;2023-02-08T21:34:06;134.20;;;90.32;;
37284;SDS011;23172;53.550;9.964;2023-02-08T21:39:08;116.00;;;77.60;;
37284;SDS011;23172;53.550;9.964;2023-02-08T21:44:10;126.57;;;84.50;;
37284;SDS011;23172;53.550;9.964;2023-02-08T21:49:13;109.07;;;83.20;;
37284;SDS011;23172;53.550;9.964;2023-02-08T21:54:33;107.50;;;74.93;;
37284;SDS011;23172;53.550;9.964;2023-02-08T21:59:53;103.80;;;87.28;;
37284;SDS011;23172;53.550;9.964;2023-02-08T22:04:59;121.35;;;84.75;;
37284;SDS011;23172;53.550;9.964;2023-02-08T22:10:05;97.25;;;73.05;;
37284;SDS011;23172;53.550;9.964;2023-02-08T22:15:07;105.80;;;83.90;;
37284;SDS011;23172;53.550;9.964;2023-02-08T22:20:12;114.82;;;82.55;;
37284;SDS011;23172;53.550;9.964;2023-02-08T22:25:15;82.22;;;66.72;;
37284;SDS011;23172;53.550;9.964;2023-02-08T22:30:18;92.63;;;65.85;;
37284;SDS011;23172;53.550;9.964;2023-02-08T22:35:21;76.18;;;59.38;;
37284;SDS011;23172;53.550;9.964;2023-02-08T22:40:23;83.78;;;65.05;;
37284;SDS011;23172;53.550;9.964;2023-02-08T22:45:25;84.40;;;61.45;;
37284;SDS011;23172;53.550;9.964;2023-02-08T22:50:28;86.65;;;67.75;;
37284;SDS011;23172;53.550;9.964;2023-02-08T22:55:30;85.78;;;68.97;;
37284;SDS011;23172;53.550;9.964;2023-02-08T23:00:32;86.43;;;77.65;;
37284;SDS011;23172;53.550;9.964;2023-02-08T23:05:36;73.47;;;56.28;;
37284;SDS011;23172;53.550;9.964;2023-02-08T23:10:40;70.65;;;57.92;;
37284;SDS011;23172;53.550;9.964;2023-02-08T23:15:43;70.35;;;54.20;;
37284;SDS011;23172;53.550;9.964;2023-02-08T23:20:46;68.28;;;49.00;;
37284;SDS011;23172;53.550;9.964;2023-02-08T23:25:48;62.25;;;47.85;;
37284;SDS011;23172;53.550;9.964;2023-02-08T23:30:50;54.60;;;38.17;;
37284;SDS011;23172;53.550;9.964;2023-02-08T23:35:55;59.38;;;39.78;;
37284;SDS011;23172;53.550;9.964;2023-02-08T23:41:01;64.30;;;44.03;;
37284;SDS011;23172;53.550;9.964;2023-02-08T23:46:06;50.75;;;35.88;;
37284;SDS011;23172;53.550;9.964;2023-02-08T23:51:10;60.67;;;48.38;;
37284;SDS011;23172;53.550;9.964;2023-02-08T23:56:13;53.95;;;35.10;;
